Acme, WA

12:02 PM PST on February 01, 2015 (GMT -0800)
Sudden Valley/Lake Whatcom | Change Station
CLOSE
Current Station
Personal Weather Station
Location: Bellingham, WA
Elevation: 648 ft
Nearby Weather Stations

Elev 648 ft 48.70 °N, 122.32 °W | Updated 6 seconds ago

Rain
Rain
44.8 °F
Feels Like 45 °F
N
1.0
Wind Variable Wind from SW
Gusts 3.0 mph

Today
High -- | Low -- °F
--% Chance of Precip.
Yesterday
High -- | Low -- °F
Precip. -- in
7:38 AM 5:06 PM
Waxing Gibbous, 96% visible
Pressure 30.01 in
Visibility 10.0 miles
Clouds Few 4600 ft
Overcast 6000 ft
Windchill 45 °F
Dew Point 44 °F
Humidity 96%
Rainfall 0.09 in
Snow Depth Not available.
UV 1 out of 12
Pollen 4.60 out of 12
Air Quality Not available.
Flu Activity Not available.
METAR KBLI 011953Z 01003KT 10SM -RA FEW046 OVC060 07/06 A2999 RMK AO2 SLP162 P0000 T00720056

More Conditions Fewer Conditions

Pressure 30.01 in
Visibility 10.0 miles
Clouds Few 4600 ft
Overcast 6000 ft
Windchill 45 °F
Dew Point 44 °F
Humidity 96%
Rainfall 0.09 in
Snow Depth Not available.
UV 1 out of 12
Pollen 4.60 out of 12
Air Quality Not available.
Flu Activity Not available.
METAR KBLI 011953Z 01003KT 10SM -RA FEW046 OVC060 07/06 A2999 RMK AO2 SLP162 P0000 T00720056

More Conditions Fewer Conditions

10-Day Weather Forecast

Almanac

Astronomy

Feb. 01, 2015 Rise Set
Actual Time
Civil Twilight
Nautical Twilight
Astronomical Twilight
Moon
Length of Visible Light
Length of Day
Tomorrow will be .
, % of the Moon is Illuminated

Today's Extremes

State Highs State Lows

Community

WunderPhotos

Upload Photos

1,792,480 photos uploaded!

WunderBlogs® & News

Nearby

Air Quality

  Air Quality AQ Index Pollutant
Not available.

Snow Depth

Station Depth Elevation

Earthquake Activity

City Distance Mag. Time & Date
Minimum magnitude displayed is 2.5.

Coastal Water Temperatures

Place Temperature

Nearby Weather Stations